ADDS METAR Data INFO
IDs: Format: Raw Decoded Include TAF

Data at: 0704 UTC 19 Oct 2017

KCXE 190655Z AUTO 00000KT 10SM CLR 05/05 A3030 RMK AO1 T00510051
KCXE 190635Z AUTO 00000KT 10SM CLR 05/05 A3031 RMK AO1 T00510051
KCXE 190615Z AUTO 00000KT 10SM CLR 06/06 A3032 RMK AO1 T00560056
KCXE 190555Z AUTO 00000KT 10SM CLR 06/06 A3032 RMK AO1 T00600060 10102 20057
KCXE 190535Z AUTO 00000KT 10SM CLR 06/06 A3032 RMK AO1 T00600060
KCXE 190515Z AUTO 00000KT 10SM CLR 06/06 A3032 RMK AO1 T00640064
KCXE 190455Z AUTO 00000KT 10SM CLR 06/06 A3032 RMK AO1 T00630063
KCXE 190435Z AUTO 00000KT 10SM CLR 07/07 A3032 RMK AO1 T00650065
KCXE 190415Z AUTO 00000KT 10SM CLR 07/07 A3033 RMK AO1 T00690068
KCXE 190355Z AUTO 00000KT 10SM CLR 07/07 A3033 RMK AO1 T00680068 402050020
KCXE 190335Z AUTO 00000KT 10SM CLR 07/07 A3033 RMK AO1 T00690068
KCXE 190315Z AUTO 00000KT 10SM CLR 07/07 A3034 RMK AO1 T00730065
KCXE 190255Z AUTO 00000KT 10SM CLR 08/06 A3033 RMK AO1 T00760061
KCXE 190235Z AUTO 00000KT 10SM CLR 08/06 A3033 RMK AO1 T00780056
KCXE 190215Z AUTO 00000KT 10SM CLR 08/05 A3033 RMK AO1 T00800053
KCXE 190155Z AUTO 00000KT 10SM CLR 08/05 A3033 RMK AO1 T00820050
KCXE 190135Z AUTO 00000KT 10SM CLR 09/05 A3033 RMK AO1 T00850050
KCXE 190115Z AUTO 00000KT 10SM CLR 08/05 A3033 RMK AO1 T00840045
KCXE 190055Z AUTO 00000KT 10SM CLR 09/05 A3033 RMK AO1 T00870045
KCXE 190035Z AUTO 00000KT 10SM CLR 09/05 A3033 RMK AO1 T00940046
KCXE 190015Z AUTO 00000KT 10SM CLR 09/05 A3033 RMK AO1 T00940046
KCXE 182355Z AUTO 00000KT 10SM CLR 10/05 A3033 RMK AO1 T01040049 10205 20103
KCXE 182335Z AUTO 00000KT 10SM CLR 11/05 A3033 RMK AO1 T01060048
KCXE 182315Z AUTO 00000KT 10SM CLR 12/05 A3032 RMK AO1 T01170049
KCXE 182255Z AUTO 00000KT 10SM CLR 13/05 A3032 RMK AO1 T01290051
KCXE 182235Z AUTO 00000KT 10SM CLR 14/05 A3032 RMK AO1 T01440050
KCXE 182215Z AUTO 00000KT 10SM CLR 16/05 A3032 RMK AO1 T01640046
KCXE 182155Z AUTO 00000KT 10SM CLR 18/03 A3032 RMK AO1 T01800032
KCXE 182135Z AUTO 00000KT 10SM CLR 19/02 A3032 RMK AO1 T01930020
KCXE 182115Z AUTO 00000KT 10SM CLR 20/02 A3032 RMK AO1 T01970015
KCXE 182055Z AUTO 09003KT 10SM CLR 20/02 A3032 RMK AO1 T01990020
KCXE 182035Z AUTO 16003KT 10SM CLR 20/02 A3033 RMK AO1 T01980018
KCXE 182015Z AUTO 00000KT 10SM CLR 20/02 A3033 RMK AO1 T01980018
KCXE 181955Z AUTO 15003KT 10SM CLR 20/03 A3033 RMK AO1 T02030025
KCXE 181935Z AUTO 11004KT 10SM CLR 20/02 A3034 RMK AO1 T02030015
KCXE 181915Z AUTO 00000KT 10SM CLR 20/02 A3034 RMK AO1 T02000015
KCXE 181855Z AUTO 00000KT 10SM CLR 20/02 A3035 RMK AO1 T01970019
KCXE 181835Z AUTO 07004KT 10SM CLR 20/02 A3035 RMK AO1 T01950021
KCXE 181815Z AUTO 00000KT 10SM CLR 19/03 A3036 RMK AO1 T01900031
KCXE 181755Z AUTO 09004KT 10SM CLR 19/02 A3037 RMK AO1 T01890024 10191 20025
KCXE 181735Z AUTO 11004KT 10SM CLR 19/02 A3037 RMK AO1 T01870022
KCXE 181715Z AUTO 00000KT 10SM CLR 18/02 A3039 RMK AO1 T01810024
KCXE 181655Z AUTO 13005KT 10SM CLR 18/02 A3040 RMK AO1 T01820022
KCXE 181635Z AUTO 00000KT 10SM CLR 18/03 A3040 RMK AO1 T01790026
KCXE 181615Z AUTO 05004KT 10SM CLR 17/03 A3041 RMK AO1 T01730028
KCXE 181555Z AUTO 13005KT 10SM CLR 17/03 A3042 RMK AO1 T01650026
KCXE 181535Z AUTO 02005KT 10SM CLR 17/03 A3042 RMK AO1 T01650029
KCXE 181515Z AUTO 00000KT 10SM CLR 16/05 A3042 RMK AO1 T01550051
KCXE 181455Z AUTO 00000KT 10SM CLR 15/05 A3042 RMK AO1 T01470051
KCXE 181435Z AUTO 00000KT 10SM CLR 14/05 A3042 RMK AO1 T01400053
KCXE 181415Z AUTO 00000KT 10SM CLR 13/05 A3042 RMK AO1 T01290052
KCXE 181355Z AUTO 00000KT 10SM CLR 12/05 A3041 RMK AO1 T01230054
KCXE 181335Z AUTO 00000KT 10SM CLR 11/06 A3041 RMK AO1 T01110056
KCXE 181315Z AUTO 00000KT 10SM CLR 10/06 A3040 RMK AO1 T00980058
KCXE 181255Z AUTO 00000KT 10SM CLR 07/07 A3040 RMK AO1 T00720072
KCXE 181235Z AUTO 00000KT 10SM CLR 06/06 A3040 RMK AO1 T00580058
KCXE 181215Z AUTO 00000KT 10SM CLR 04/04 A3039 RMK AO1 T00350035
KCXE 181155Z AUTO 00000KT 10SM CLR 02/02 A3038 RMK AO1 T00220022 10050 20020
KCXE 181135Z AUTO 00000KT 10SM CLR 02/02 A3038 RMK AO1 T00210021
KCXE 181115Z AUTO 00000KT 10SM CLR 02/02 A3037 RMK AO1 T00200020
KCXE 181055Z AUTO 00000KT 10SM CLR 02/02 A3037 RMK AO1 T00220022
KCXE 181035Z AUTO 00000KT 10SM CLR 02/02 A3037 RMK AO1 T00230023
KCXE 181015Z AUTO 00000KT 10SM CLR 02/02 A3036 RMK AO1 T00240024
KCXE 180955Z AUTO 00000KT 10SM CLR 03/03 A3035 RMK AO1 T00250025
KCXE 180935Z AUTO 00000KT 10SM CLR 03/03 A3035 RMK AO1 T00250025
KCXE 180915Z AUTO 00000KT 10SM CLR 03/03 A3034 RMK AO1 T00260026
KCXE 180855Z AUTO 00000KT 10SM CLR 03/03 A3035 RMK AO1 T00280028
KCXE 180835Z AUTO 00000KT 10SM CLR 03/03 A3034 RMK AO1 T00290029
KCXE 180815Z AUTO 00000KT 10SM CLR 03/03 A3034 RMK AO1 T00330033
KCXE 180755Z AUTO 00000KT 10SM CLR 03/03 A3034 RMK AO1 T00330033
KCXE 180735Z AUTO 00000KT 10SM CLR 04/04 A3034 RMK AO1 T00380038
KCXE 180715Z AUTO 00000KT 10SM CLR 04/04 A3034 RMK AO1 T00380038
KCXE 180655Z AUTO 00000KT 10SM CLR 05/05 A3034 RMK AO1 T00460046
KCXE 180635Z AUTO 00000KT 10SM CLR 05/04 A3034 RMK AO1 T00490043
KCXE 180615Z AUTO 00000KT 10SM CLR 05/04 A3034 RMK AO1 T00480037
KCXE 180555Z AUTO 00000KT 10SM CLR 05/04 A3034 RMK AO1 T00470038 10082 20041
KCXE 180535Z AUTO 00000KT 10SM CLR 05/05 A3033 RMK AO1 T00450045
KCXE 180515Z AUTO 00000KT 10SM CLR 04/04 A3033 RMK AO1 T00410041
KCXE 180455Z AUTO 00000KT 10SM CLR 05/04 A3033 RMK AO1 T00470038
KCXE 180435Z AUTO 00000KT 10SM CLR 05/04 A3033 RMK AO1 T00470035
KCXE 180415Z AUTO 00000KT 10SM CLR 05/05 A3034 RMK AO1 T00510050
KCXE 180355Z AUTO 00000KT 10SM CLR 05/05 A3034 RMK AO1 T00530053 401740053
KCXE 180335Z AUTO 00000KT 10SM CLR 06/04 A3035 RMK AO1 T00560042
KCXE 180315Z AUTO 00000KT 10SM CLR 06/04 A3035 RMK AO1 T00580035
KCXE 180255Z AUTO 00000KT 10SM CLR 06/04 A3035 RMK AO1 T00560040
KCXE 180235Z AUTO 00000KT 10SM CLR 06/03 A3035 RMK AO1 T00580034
KCXE 180215Z AUTO 00000KT 10SM CLR 06/04 A3035 RMK AO1 T00600036
KCXE 180155Z AUTO 00000KT 10SM CLR 06/04 A3035 RMK AO1 T00640041
KCXE 180135Z AUTO 00000KT 10SM CLR 07/04 A3034 RMK AO1 T00650041
KCXE 180115Z AUTO 00000KT 10SM CLR 07/04 A3034 RMK AO1 T00690041
KCXE 180055Z AUTO 00000KT 10SM CLR 07/04 A3033 RMK AO1 T00700038
KCXE 180035Z AUTO 00000KT 10SM CLR 07/04 A3033 RMK AO1 T00740035
KCXE 180015Z AUTO 00000KT 10SM CLR 08/04 A3032 RMK AO1 T00800038
KCXE 172355Z AUTO 00000KT 10SM CLR 09/04 A3032 RMK AO1 T00850036 10174 20085
KCXE 172335Z AUTO 00000KT 10SM CLR 09/03 A3032 RMK AO1 T00920034
KCXE 172315Z AUTO 00000KT 10SM CLR 10/04 A3031 RMK AO1 T00990036
KCXE 172255Z AUTO 00000KT 10SM CLR 11/04 A3031 RMK AO1 T01100038
KCXE 172235Z AUTO 00000KT 10SM CLR 12/03 A3030 RMK AO1 T01230032
KCXE 172215Z AUTO 00000KT 10SM CLR 15/01 A3030 RMK AO1 T01470014
KCXE 172155Z AUTO 00000KT 10SM CLR 16/01 A3029 RMK AO1 T01590012
KCXE 172135Z AUTO 00000KT 10SM CLR 16/01 A3029 RMK AO1 T01630008
KCXE 172115Z AUTO 00000KT 10SM CLR 17/00 A3029 RMK AO1 T01660002
KCXE 172055Z AUTO 04004KT 10SM CLR 17/00 A3030 RMK AO1 T01670002
KCXE 172035Z AUTO 05003KT 10SM CLR 17/00 A3030 RMK AO1 T01700004
KCXE 172015Z AUTO 35003KT 10SM CLR 17/00 A3031 RMK AO1 T01700001
KCXE 171955Z AUTO 00000KT 10SM CLR 17/00 A3030 RMK AO1 T01690003
KCXE 171935Z AUTO 36004KT 10SM CLR 17/00 A3031 RMK AO1 T01690002
KCXE 171915Z AUTO 33003KT 10SM CLR 17/00 A3031 RMK AO1 T01690003